createdAt,value
2022-11-06T00:04:35.072Z,9.50
2022-11-06T00:09:38.937Z,9.97
2022-11-06T00:14:42.798Z,12.60
2022-11-06T00:19:44.438Z,9.80
2022-11-06T00:24:49.488Z,11.87
2022-11-06T00:29:51.177Z,10.93
2022-11-06T00:34:52.813Z,10.87
2022-11-06T00:39:56.840Z,12.30
2022-11-06T00:45:01.797Z,12.37
2022-11-06T00:50:08.409Z,10.50
2022-11-06T00:55:15.176Z,12.73
2022-11-06T01:00:18.210Z,10.07
2022-11-06T01:05:21.013Z,12.43
2022-11-06T01:10:25.264Z,10.77
2022-11-06T01:15:29.504Z,10.97
2022-11-06T01:20:33.531Z,10.93
2022-11-06T01:25:35.178Z,11.53
2022-11-06T01:30:39.663Z,14.83
2022-11-06T01:35:47.197Z,12.13
2022-11-06T01:40:49.547Z,10.90
2022-11-06T01:45:56.017Z,11.53
2022-11-06T01:51:02.130Z,12.63
2022-11-06T01:56:08.648Z,9.03
2022-11-06T02:01:13.497Z,14.20
2022-11-06T02:06:18.321Z,12.93
2022-11-06T02:11:25.551Z,10.90
2022-11-06T02:16:27.260Z,13.70
2022-11-06T02:21:50.303Z,15.57
2022-11-06T02:27:33.235Z,12.37
2022-11-06T02:32:52.658Z,14.83
2022-11-06T02:38:00.620Z,17.37
2022-11-06T02:43:07.485Z,12.30
2022-11-06T02:48:12.508Z,21.33
2022-11-06T02:53:18.630Z,22.00
2022-11-06T02:58:33.641Z,19.63
2022-11-06T03:03:41.358Z,20.37
2022-11-06T03:08:50.051Z,15.80
2022-11-06T03:14:11.715Z,17.73
2022-11-06T03:19:37.507Z,18.77
2022-11-06T03:24:46.929Z,19.77
2022-11-06T03:29:58.110Z,20.50
2022-11-06T03:35:20.472Z,20.13
2022-11-06T03:40:31.460Z,19.93
2022-11-06T03:45:40.716Z,16.57
2022-11-06T03:50:56.294Z,20.40
2022-11-06T03:56:08.264Z,19.40
2022-11-06T04:01:11.466Z,16.17
2022-11-06T04:06:26.928Z,25.57
2022-11-06T04:11:48.703Z,19.30
2022-11-06T04:16:55.525Z,27.07
2022-11-06T04:22:12.427Z,17.77
2022-11-06T04:27:32.675Z,19.67
2022-11-06T04:32:44.240Z,21.20
2022-11-06T04:38:03.505Z,20.03
2022-11-06T04:43:15.022Z,23.13
2022-11-06T04:48:22.457Z,19.97
2022-11-06T04:53:29.389Z,16.70
2022-11-06T04:58:36.380Z,25.47
2022-11-06T05:03:39.298Z,23.23
2022-11-06T05:08:48.049Z,24.70
2022-11-06T05:13:52.066Z,18.67
2022-11-06T05:18:59.056Z,19.33
2022-11-06T05:24:06.297Z,24.93
2022-11-06T05:29:11.486Z,18.13
2022-11-06T05:34:16.249Z,21.50
2022-11-06T05:39:17.920Z,21.30
2022-11-06T05:44:21.930Z,19.73
2022-11-06T05:49:23.552Z,24.30
2022-11-06T05:54:30.215Z,28.23
2022-11-06T05:59:36.635Z,21.77
2022-11-06T06:04:38.305Z,20.17
2022-11-06T06:09:44.566Z,19.90
2022-11-06T06:14:50.580Z,24.40
2022-11-06T06:19:59.357Z,25.57
2022-11-06T06:25:07.605Z,26.73
2022-11-06T06:30:18.895Z,29.73
2022-11-06T06:35:22.950Z,25.00
2022-11-06T06:40:27.379Z,23.03
2022-11-06T06:45:29.076Z,22.20
2022-11-06T06:50:33.025Z,23.47
2022-11-06T06:55:36.772Z,26.67
2022-11-06T07:00:41.759Z,27.30
2022-11-06T07:05:48.420Z,25.57
2022-11-06T07:10:50.082Z,23.53
2022-11-06T07:15:55.126Z,20.27
2022-11-06T07:20:59.262Z,19.83
2022-11-06T07:26:01.191Z,18.27
2022-11-06T07:31:06.334Z,17.70
2022-11-06T07:36:12.924Z,19.73
2022-11-06T07:41:17.331Z,26.30
2022-11-06T07:46:23.937Z,16.03
2022-11-06T07:51:25.820Z,17.27
2022-11-06T07:56:27.570Z,16.80
2022-11-06T08:01:31.818Z,16.67
2022-11-06T08:06:34.749Z,12.87
2022-11-06T08:11:38.662Z,17.03
2022-11-06T08:16:40.807Z,15.80
2022-11-06T08:21:42.594Z,16.23
2022-11-06T08:26:50.409Z,21.00
2022-11-06T08:31:56.745Z,13.97
2022-11-06T08:37:03.557Z,11.50
2022-11-06T08:42:09.986Z,13.83
2022-11-06T08:47:11.686Z,16.13
2022-11-06T08:52:15.647Z,10.43
2022-11-06T08:57:19.759Z,15.60
2022-11-06T09:02:23.911Z,12.47
2022-11-06T09:07:31.139Z,11.80
2022-11-06T09:12:33.978Z,12.77
2022-11-06T09:17:45.748Z,12.20
2022-11-06T09:22:47.693Z,12.33
2022-11-06T09:27:58.569Z,14.80
2022-11-06T09:33:02.462Z,10.77
2022-11-06T09:38:11.749Z,9.57
2022-11-06T09:43:50.117Z,18.23
2022-11-06T09:49:11.879Z,8.60
2022-11-06T09:54:26.494Z,8.73
2022-11-06T09:59:35.741Z,6.83
2022-11-06T10:04:45.919Z,11.03
2022-11-06T10:09:52.608Z,11.73
2022-11-06T10:15:20.132Z,9.63
2022-11-06T10:20:32.104Z,12.77
2022-11-06T10:25:45.838Z,13.23
2022-11-06T10:31:01.901Z,12.03
2022-11-06T10:36:12.067Z,10.88
2022-11-06T10:41:20.272Z,11.73
2022-11-06T10:46:41.155Z,15.93
2022-11-06T10:51:56.603Z,8.15
2022-11-06T10:57:06.928Z,11.48
2022-11-06T11:02:25.386Z,7.82
2022-11-06T11:07:37.802Z,9.00
2022-11-06T11:12:47.599Z,39.63
2022-11-06T11:18:08.405Z,40.35
2022-11-06T11:23:26.010Z,11.80
2022-11-06T11:28:33.361Z,12.00
2022-11-06T11:33:35.550Z,11.70
2022-11-06T11:38:42.760Z,10.73
2022-11-06T11:44:06.204Z,10.43
2022-11-06T11:49:26.721Z,7.05
2022-11-06T11:54:33.815Z,5.85
2022-11-06T11:59:45.274Z,6.80
2022-11-06T12:04:59.996Z,9.35
2022-11-06T12:10:20.573Z,5.28
2022-11-06T12:15:24.074Z,7.40
2022-11-06T12:20:40.330Z,8.40
2022-11-06T12:25:43.215Z,7.85
2022-11-06T12:30:50.926Z,11.98
2022-11-06T12:36:01.746Z,8.52
2022-11-06T12:41:26.332Z,7.93
2022-11-06T12:46:52.355Z,9.10
2022-11-06T12:52:09.273Z,7.40
2022-11-06T12:57:39.607Z,5.28
2022-11-06T13:03:00.026Z,7.35
2022-11-06T13:08:13.517Z,6.75
2022-11-06T13:13:26.312Z,8.85
2022-11-06T13:18:39.952Z,7.25
2022-11-06T13:23:51.396Z,5.07
2022-11-06T13:28:57.740Z,6.55
2022-11-06T13:34:05.390Z,7.45
2022-11-06T13:39:13.902Z,6.47
2022-11-06T13:44:20.064Z,4.05
2022-11-06T13:49:41.754Z,6.43
2022-11-06T13:55:07.104Z,5.28
2022-11-06T14:00:19.789Z,6.20
2022-11-06T14:05:46.396Z,5.93
2022-11-06T14:11:03.839Z,9.65
2022-11-06T14:16:21.931Z,8.18
2022-11-06T14:21:29.846Z,4.80
2022-11-06T14:26:51.143Z,5.88
2022-11-06T14:32:00.032Z,8.18
2022-11-06T14:37:30.589Z,6.82
2022-11-06T14:42:36.033Z,8.65
2022-11-06T14:47:42.732Z,5.82
2022-11-06T14:52:50.977Z,6.38
2022-11-06T14:57:57.274Z,5.63
2022-11-06T15:03:08.467Z,6.07
2022-11-06T15:08:12.514Z,4.90
2022-11-06T15:13:21.076Z,7.18
2022-11-06T15:18:24.949Z,6.55
2022-11-06T15:23:46.552Z,6.95
2022-11-06T15:28:56.568Z,6.85
2022-11-06T15:34:10.756Z,5.72
2022-11-06T15:39:24.212Z,3.60
2022-11-06T15:44:28.364Z,5.45
2022-11-06T15:49:32.315Z,4.72
2022-11-06T15:54:41.345Z,10.00
2022-11-06T15:59:45.469Z,7.00
2022-11-06T16:04:49.267Z,9.27
2022-11-06T16:09:53.605Z,4.22
2022-11-06T16:14:57.590Z,7.32
2022-11-06T16:20:04.358Z,5.85
2022-11-06T16:25:07.331Z,20.80
2022-11-06T16:30:25.106Z,15.13
2022-11-06T16:35:38.460Z,21.58
2022-11-06T16:41:01.625Z,11.75
2022-11-06T16:46:12.394Z,8.73
2022-11-06T16:56:48.304Z,6.93
2022-11-06T17:01:52.824Z,6.43
2022-11-06T17:06:54.781Z,10.10
2022-11-06T17:12:09.496Z,13.48
2022-11-06T17:17:25.866Z,5.27
2022-11-06T17:22:35.652Z,6.50
2022-11-06T17:27:37.392Z,5.73
2022-11-06T17:32:41.982Z,7.00
2022-11-06T17:37:43.635Z,8.20
2022-11-06T17:42:45.455Z,5.03
2022-11-06T17:47:48.489Z,5.37
2022-11-06T17:52:50.196Z,9.10
2022-11-06T17:57:54.577Z,8.23
2022-11-06T18:03:02.401Z,6.00
2022-11-06T18:08:07.729Z,9.37
2022-11-06T18:13:09.483Z,11.00
2022-11-06T18:18:11.362Z,5.00
2022-11-06T18:23:21.539Z,7.90
2022-11-06T18:28:25.278Z,8.13
2022-11-06T18:33:29.609Z,6.83
2022-11-06T18:38:32.389Z,10.70
2022-11-06T18:43:34.134Z,10.27
2022-11-06T18:48:38.595Z,7.73
2022-11-06T18:53:42.778Z,5.87
2022-11-06T18:58:49.923Z,11.03
2022-11-06T19:03:56.404Z,18.53
2022-11-06T19:09:01.347Z,9.10
2022-11-06T19:14:05.960Z,9.53
2022-11-06T19:19:11.436Z,7.23
2022-11-06T19:24:15.722Z,15.20
2022-11-06T19:29:18.416Z,15.33
2022-11-06T19:34:25.561Z,12.17
2022-11-06T19:39:29.577Z,12.60
2022-11-06T19:44:34.238Z,7.17
2022-11-06T19:49:36.134Z,11.40
2022-11-06T19:54:40.548Z,11.17
2022-11-06T19:59:47.653Z,7.50
2022-11-06T20:04:56.685Z,8.73
2022-11-06T20:10:03.816Z,8.63
2022-11-06T20:15:05.950Z,7.93
2022-11-06T20:20:13.357Z,8.97
2022-11-06T20:25:18.447Z,4.60
2022-11-06T20:30:22.462Z,5.77
2022-11-06T20:35:37.918Z,5.13
2022-11-06T20:40:43.055Z,6.07
2022-11-06T20:45:46.179Z,6.93
2022-11-06T20:51:09.137Z,5.07
2022-11-06T20:56:13.254Z,5.13
2022-11-06T21:01:23.078Z,6.20
2022-11-06T21:06:28.807Z,5.37
2022-11-06T21:11:35.180Z,5.27
2022-11-06T21:16:37.407Z,5.67
2022-11-06T21:21:39.121Z,5.90
2022-11-06T21:26:40.804Z,4.43
2022-11-06T21:31:49.027Z,4.30
2022-11-06T21:36:51.145Z,5.17
2022-11-06T21:41:52.857Z,7.83
2022-11-06T21:46:56.991Z,7.63
2022-11-06T21:52:25.112Z,6.90
2022-11-06T21:57:30.268Z,6.83
2022-11-06T22:02:32.086Z,6.73
2022-11-06T22:07:33.941Z,5.40
2022-11-06T22:12:35.609Z,5.20
2022-11-06T22:17:40.453Z,6.50
2022-11-06T22:22:42.119Z,5.40
2022-11-06T22:27:46.001Z,7.47
2022-11-06T22:32:53.089Z,6.93
2022-11-06T22:37:54.715Z,5.23
2022-11-06T22:42:58.807Z,6.03
2022-11-06T22:48:00.734Z,7.03
2022-11-06T22:53:09.506Z,10.23
2022-11-06T22:58:15.405Z,7.70
2022-11-06T23:03:17.908Z,10.93
2022-11-06T23:08:22.645Z,7.00
2022-11-06T23:13:24.591Z,12.47
2022-11-06T23:18:26.228Z,7.77
2022-11-06T23:23:28.798Z,7.03
2022-11-06T23:28:31.536Z,9.40
2022-11-06T23:33:35.662Z,9.90
2022-11-06T23:38:39.909Z,9.67
2022-11-06T23:43:43.545Z,8.90
2022-11-06T23:48:45.284Z,11.13
2022-11-06T23:53:52.619Z,8.97
2022-11-06T23:58:59.559Z,9.70
